sensor_id;sensor_type;location;lat;lon;timestamp;pressure;altitude;pressure_sealevel;temperature;humidity
75219;BME280;63801;49.414;19.474;2023-09-12T00:00:22;93815.13;;;16.11;72.60
75219;BME280;63801;49.414;19.474;2023-09-12T00:02:23;93816.69;;;16.05;72.87
75219;BME280;63801;49.414;19.474;2023-09-12T00:04:24;93817.47;;;16.06;72.83
75219;BME280;63801;49.414;19.474;2023-09-12T00:06:24;93810.47;;;16.05;72.94
75219;BME280;63801;49.414;19.474;2023-09-12T00:08:25;93804.59;;;16.03;73.43
75219;BME280;63801;49.414;19.474;2023-09-12T00:10:25;93809.66;;;16.01;73.36
75219;BME280;63801;49.414;19.474;2023-09-12T00:12:26;93815.09;;;15.97;73.67
75219;BME280;63801;49.414;19.474;2023-09-12T00:14:26;93808.81;;;15.93;73.34
75219;BME280;63801;49.414;19.474;2023-09-12T00:16:26;93802.56;;;15.86;73.36
75219;BME280;63801;49.414;19.474;2023-09-12T00:18:27;93805.72;;;15.88;73.87
75219;BME280;63801;49.414;19.474;2023-09-12T00:20:27;93818.88;;;15.86;74.06
75219;BME280;63801;49.414;19.474;2023-09-12T00:22:27;93810.72;;;15.82;73.77
75219;BME280;63801;49.414;19.474;2023-09-12T00:24:28;93812.25;;;15.80;73.79
75219;BME280;63801;49.414;19.474;2023-09-12T00:26:28;93817.28;;;15.78;73.92
75219;BME280;63801;49.414;19.474;2023-09-12T00:28:30;93812.63;;;15.75;73.70
75219;BME280;63801;49.414;19.474;2023-09-12T00:30:31;93813.34;;;15.71;73.66
75219;BME280;63801;49.414;19.474;2023-09-12T00:32:31;93812.56;;;15.67;74.02
75219;BME280;63801;49.414;19.474;2023-09-12T00:34:31;93805.53;;;15.59;74.10
75219;BME280;63801;49.414;19.474;2023-09-12T00:36:32;93815.63;;;15.62;73.95
75219;BME280;63801;49.414;19.474;2023-09-12T00:38:33;93806.66;;;15.55;74.07
75219;BME280;63801;49.414;19.474;2023-09-12T00:40:33;93810.91;;;15.52;74.29
75219;BME280;63801;49.414;19.474;2023-09-12T00:42:33;93821.44;;;15.57;74.18
75219;BME280;63801;49.414;19.474;2023-09-12T00:44:34;93817.94;;;15.57;74.42
75219;BME280;63801;49.414;19.474;2023-09-12T00:46:34;93817.16;;;15.56;74.36
75219;BME280;63801;49.414;19.474;2023-09-12T00:48:37;93809.00;;;15.56;74.52
75219;BME280;63801;49.414;19.474;2023-09-12T00:50:39;93809.38;;;15.55;74.51
75219;BME280;63801;49.414;19.474;2023-09-12T00:52:40;93818.66;;;15.54;74.58
75219;BME280;63801;49.414;19.474;2023-09-12T00:54:42;93810.13;;;15.52;74.25
75219;BME280;63801;49.414;19.474;2023-09-12T00:56:42;93815.19;;;15.53;74.71
75219;BME280;63801;49.414;19.474;2023-09-12T00:58:43;93807.03;;;15.53;74.71
75219;BME280;63801;49.414;19.474;2023-09-12T01:00:45;93816.34;;;15.52;74.59
75219;BME280;63801;49.414;19.474;2023-09-12T01:02:46;93808.91;;;15.49;74.72
75219;BME280;63801;49.414;19.474;2023-09-12T01:04:47;93808.56;;;15.51;74.52
75219;BME280;63801;49.414;19.474;2023-09-12T01:06:48;93809.75;;;15.53;74.58
75219;BME280;63801;49.414;19.474;2023-09-12T01:08:48;93792.59;;;15.46;74.68
75219;BME280;63801;49.414;19.474;2023-09-12T01:10:49;93800.84;;;15.53;74.74
75219;BME280;63801;49.414;19.474;2023-09-12T01:12:53;93814.03;;;15.54;75.41
75219;BME280;63801;49.414;19.474;2023-09-12T01:14:53;93798.03;;;15.49;74.95
75219;BME280;63801;49.414;19.474;2023-09-12T01:16:53;93805.50;;;15.56;75.14
75219;BME280;63801;49.414;19.474;2023-09-12T01:18:54;93804.72;;;15.55;74.88
75219;BME280;63801;49.414;19.474;2023-09-12T01:27:53;93810.94;;;15.59;75.13
75219;BME280;63801;49.414;19.474;2023-09-12T01:29:56;93810.56;;;15.57;74.94
75219;BME280;63801;49.414;19.474;2023-09-12T01:31:57;93803.53;;;15.53;75.04
75219;BME280;63801;49.414;19.474;2023-09-12T01:34:11;93804.31;;;15.53;75.43
75219;BME280;63801;49.414;19.474;2023-09-12T01:36:11;93813.66;;;15.59;75.40
75219;BME280;63801;49.414;19.474;2023-09-12T01:38:13;93784.91;;;15.51;75.27
75219;BME280;63801;49.414;19.474;2023-09-12T01:40:13;93802.44;;;15.64;75.14
75219;BME280;63801;49.414;19.474;2023-09-12T01:42:18;93805.59;;;15.66;75.24
75219;BME280;63801;49.414;19.474;2023-09-12T01:44:24;93812.94;;;15.66;75.31
75219;BME280;63801;49.414;19.474;2023-09-12T01:46:26;93809.81;;;15.64;75.10
75219;BME280;63801;49.414;19.474;2023-09-12T01:48:32;93814.09;;;15.61;75.39
75219;BME280;63801;49.414;19.474;2023-09-12T01:50:34;93803.16;;;15.54;75.29
75219;BME280;63801;49.414;19.474;2023-09-12T01:52:36;93806.28;;;15.56;75.33
75219;BME280;63801;49.414;19.474;2023-09-12T01:54:37;93810.16;;;15.55;75.50
75219;BME280;63801;49.414;19.474;2023-09-12T01:56:38;93810.53;;;15.54;75.58
75219;BME280;63801;49.414;19.474;2023-09-12T01:58:39;93810.53;;;15.54;75.59
75219;BME280;63801;49.414;19.474;2023-09-12T02:00:40;93804.31;;;15.53;75.42
75219;BME280;63801;49.414;19.474;2023-09-12T02:02:41;93801.94;;;15.48;75.82
75219;BME280;63801;49.414;19.474;2023-09-12T02:04:51;93811.31;;;15.54;75.66
75219;BME280;63801;49.414;19.474;2023-09-12T02:06:52;93812.47;;;15.53;75.68
75219;BME280;63801;49.414;19.474;2023-09-12T02:08:53;93811.69;;;15.53;75.84
75219;BME280;63801;49.414;19.474;2023-09-12T02:10:53;93810.50;;;15.50;76.09
75219;BME280;63801;49.414;19.474;2023-09-12T02:12:54;93809.28;;;15.48;75.70
75219;BME280;63801;49.414;19.474;2023-09-12T02:14:55;93807.72;;;15.43;75.75
75219;BME280;63801;49.414;19.474;2023-09-12T02:16:55;93804.56;;;15.41;75.89
75219;BME280;63801;49.414;19.474;2023-09-12T02:18:55;93811.56;;;15.39;75.91
75219;BME280;63801;49.414;19.474;2023-09-12T02:20:58;93803.31;;;15.28;75.91
75219;BME280;63801;49.414;19.474;2023-09-12T02:22:58;93814.97;;;15.32;76.13
75219;BME280;63801;49.414;19.474;2023-09-12T02:24:59;93811.47;;;15.28;75.98
75219;BME280;63801;49.414;19.474;2023-09-12T02:26:59;93795.81;;;15.14;75.92
75219;BME280;63801;49.414;19.474;2023-09-12T02:28:59;93804.41;;;15.16;76.24
75219;BME280;63801;49.414;19.474;2023-09-12T02:31:00;93810.59;;;15.17;76.07
75219;BME280;63801;49.414;19.474;2023-09-12T02:33:00;93808.63;;;15.14;75.98
75219;BME280;63801;49.414;19.474;2023-09-12T02:35:00;93807.09;;;15.13;76.39
75219;BME280;63801;49.414;19.474;2023-09-12T02:37:01;93809.38;;;15.11;76.41
75219;BME280;63801;49.414;19.474;2023-09-12T02:39:01;93809.75;;;15.09;76.36
75219;BME280;63801;49.414;19.474;2023-09-12T02:41:01;93809.00;;;15.09;76.26
75219;BME280;63801;49.414;19.474;2023-09-12T02:43:02;93805.06;;;15.06;76.63
75219;BME280;63801;49.414;19.474;2023-09-12T02:45:03;93802.72;;;15.05;76.57
75219;BME280;63801;49.414;19.474;2023-09-12T02:47:04;93805.81;;;15.00;76.48
75219;BME280;63801;49.414;19.474;2023-09-12T02:49:05;93815.91;;;15.03;76.27
75219;BME280;63801;49.414;19.474;2023-09-12T02:51:05;93797.19;;;14.91;76.62
75219;BME280;63801;49.414;19.474;2023-09-12T02:53:06;93808.91;;;15.02;76.82
75219;BME280;63801;49.414;19.474;2023-09-12T02:55:06;93807.34;;;15.01;76.73
75219;BME280;63801;49.414;19.474;2023-09-12T02:57:07;93807.34;;;15.01;76.63
75219;BME280;63801;49.414;19.474;2023-09-12T02:59:07;93805.72;;;14.93;76.81
75219;BME280;63801;49.414;19.474;2023-09-12T03:01:07;93810.81;;;14.98;76.60
75219;BME280;63801;49.414;19.474;2023-09-12T03:03:08;93811.97;;;14.97;76.37
75219;BME280;63801;49.414;19.474;2023-09-12T03:05:09;93810.00;;;14.94;76.83
75219;BME280;63801;49.414;19.474;2023-09-12T03:07:10;93812.34;;;14.95;76.85
75219;BME280;63801;49.414;19.474;2023-09-12T03:09:10;93798.69;;;14.88;76.96
75219;BME280;63801;49.414;19.474;2023-09-12T03:11:11;93808.47;;;14.96;76.53
75219;BME280;63801;49.414;19.474;2023-09-12T03:13:11;93818.19;;;14.97;76.95
75219;BME280;63801;49.414;19.474;2023-09-12T03:15:12;93806.94;;;14.95;77.09
75219;BME280;63801;49.414;19.474;2023-09-12T03:17:13;93810.44;;;14.96;76.73
75219;BME280;63801;49.414;19.474;2023-09-12T03:19:13;93809.63;;;14.95;76.89
75219;BME280;63801;49.414;19.474;2023-09-12T03:21:13;93810.44;;;14.96;77.08
75219;BME280;63801;49.414;19.474;2023-09-12T03:23:14;93815.44;;;14.94;77.36
75219;BME280;63801;49.414;19.474;2023-09-12T03:25:14;93808.84;;;14.95;77.03
75219;BME280;63801;49.414;19.474;2023-09-12T03:27:14;93809.22;;;14.93;77.08
75219;BME280;63801;49.414;19.474;2023-09-12T03:29:15;93808.03;;;14.91;76.86
75219;BME280;63801;49.414;19.474;2023-09-12T03:31:15;93814.28;;;14.95;77.01
75219;BME280;63801;49.414;19.474;2023-09-12T03:33:15;93813.50;;;14.94;76.99
75219;BME280;63801;49.414;19.474;2023-09-12T03:35:16;93823.16;;;14.92;77.06
75219;BME280;63801;49.414;19.474;2023-09-12T03:37:16;93825.47;;;14.90;76.92
75219;BME280;63801;49.414;19.474;2023-09-12T03:39:16;93823.13;;;14.88;77.18
75219;BME280;63801;49.414;19.474;2023-09-12T03:41:17;93813.00;;;14.81;77.13
75219;BME280;63801;49.414;19.474;2023-09-12T03:43:17;93820.38;;;14.84;77.23
75219;BME280;63801;49.414;19.474;2023-09-12T03:45:17;93823.47;;;14.83;77.29
75219;BME280;63801;49.414;19.474;2023-09-12T03:47:18;93821.50;;;14.80;77.22
75219;BME280;63801;49.414;19.474;2023-09-12T03:49:18;93814.84;;;14.74;76.94
75219;BME280;63801;49.414;19.474;2023-09-12T03:51:18;93822.22;;;14.73;76.93
75219;BME280;63801;49.414;19.474;2023-09-12T03:53:19;93822.94;;;14.70;77.45
75219;BME280;63801;49.414;19.474;2023-09-12T03:55:19;93819.03;;;14.64;77.51
75219;BME280;63801;49.414;19.474;2023-09-12T03:57:19;93817.47;;;14.63;77.41
75219;BME280;63801;49.414;19.474;2023-09-12T03:59:20;93817.78;;;14.58;77.44
75219;BME280;63801;49.414;19.474;2023-09-12T04:01:20;93822.41;;;14.54;77.93
75219;BME280;63801;49.414;19.474;2023-09-12T04:03:21;93815.72;;;14.48;77.80
75219;BME280;63801;49.414;19.474;2023-09-12T04:05:22;93816.16;;;14.50;78.00
75219;BME280;63801;49.414;19.474;2023-09-12T04:07:22;93825.44;;;14.49;77.71
75219;BME280;63801;49.414;19.474;2023-09-12T04:09:22;93824.66;;;14.49;78.08
75219;BME280;63801;49.414;19.474;2023-09-12T04:11:23;93818.09;;;14.50;78.12
75219;BME280;63801;49.414;19.474;2023-09-12T04:13:23;93827.78;;;14.51;77.96
75219;BME280;63801;49.414;19.474;2023-09-12T04:15:23;93823.88;;;14.48;77.90
75219;BME280;63801;49.414;19.474;2023-09-12T04:17:24;93815.66;;;14.41;77.87
75219;BME280;63801;49.414;19.474;2023-09-12T04:19:25;93821.06;;;14.37;77.78
75219;BME280;63801;49.414;19.474;2023-09-12T04:21:25;93822.25;;;14.44;78.29
75219;BME280;63801;49.414;19.474;2023-09-12T04:23:25;93823.81;;;14.41;77.60
75219;BME280;63801;49.414;19.474;2023-09-12T04:25:26;93830.41;;;14.44;78.05
75219;BME280;63801;49.414;19.474;2023-09-12T04:27:27;93828.50;;;14.48;78.31
75219;BME280;63801;49.414;19.474;2023-09-12T04:29:27;93829.78;;;14.57;78.29
75219;BME280;63801;49.414;19.474;2023-09-12T04:31:27;93821.78;;;14.68;77.88
75219;BME280;63801;49.414;19.474;2023-09-12T04:33:28;93823.41;;;14.76;78.60
75219;BME280;63801;49.414;19.474;2023-09-12T04:35:28;93829.75;;;14.91;78.51
75219;BME280;63801;49.414;19.474;2023-09-12T04:37:29;93819.78;;;15.02;78.61
75219;BME280;63801;49.414;19.474;2023-09-12T04:39:29;93823.00;;;15.18;78.75
75219;BME280;63801;49.414;19.474;2023-09-12T04:41:30;93825.13;;;15.35;78.46
75219;BME280;63801;49.414;19.474;2023-09-12T04:43:31;93828.38;;;15.55;78.05
75219;BME280;63801;49.414;19.474;2023-09-12T04:45:33;93823.50;;;15.75;77.48
75219;BME280;63801;49.414;19.474;2023-09-12T04:47:33;93803.72;;;15.85;77.63
75219;BME280;63801;49.414;19.474;2023-09-12T04:49:34;93825.22;;;16.11;76.93
75219;BME280;63801;49.414;19.474;2023-09-12T04:51:34;93827.22;;;16.14;76.81
75219;BME280;63801;49.414;19.474;2023-09-12T04:53:34;93816.69;;;16.12;76.76
75219;BME280;63801;49.414;19.474;2023-09-12T04:55:38;93833.06;;;16.20;76.67
75219;BME280;63801;49.414;19.474;2023-09-12T04:57:38;93830.75;;;16.25;77.16
75219;BME280;63801;49.414;19.474;2023-09-12T04:59:39;93828.50;;;16.41;77.42
75219;BME280;63801;49.414;19.474;2023-09-12T05:01:39;93830.88;;;16.57;76.73
75219;BME280;63801;49.414;19.474;2023-09-12T05:03:39;93833.31;;;16.76;76.49
75219;BME280;63801;49.414;19.474;2023-09-12T05:05:40;93834.91;;;16.84;76.34
75219;BME280;63801;49.414;19.474;2023-09-12T05:07:40;93834.91;;;16.84;76.17
75219;BME280;63801;49.414;19.474;2023-09-12T05:09:40;93843.44;;;16.79;75.84
75219;BME280;63801;49.414;19.474;2023-09-12T05:11:41;93833.31;;;16.73;75.54
75219;BME280;63801;49.414;19.474;2023-09-12T05:13:41;93841.84;;;16.71;75.97
75219;BME280;63801;49.414;19.474;2023-09-12T05:15:41;93841.84;;;16.71;76.59
75219;BME280;63801;49.414;19.474;2023-09-12T05:17:42;93838.34;;;16.74;76.52
75219;BME280;63801;49.414;19.474;2023-09-12T05:19:42;93830.19;;;16.78;76.64
75219;BME280;63801;49.414;19.474;2023-09-12T05:21:42;93838.00;;;16.83;76.15
75219;BME280;63801;49.414;19.474;2023-09-12T05:23:43;93837.25;;;16.86;76.06
75219;BME280;63801;49.414;19.474;2023-09-12T05:25:43;93835.69;;;16.92;76.53
75219;BME280;63801;49.414;19.474;2023-09-12T05:27:43;93841.94;;;17.03;76.13
75219;BME280;63801;49.414;19.474;2023-09-12T05:29:44;93825.56;;;16.96;76.08
75219;BME280;63801;49.414;19.474;2023-09-12T05:31:44;93846.22;;;17.18;75.67
75219;BME280;63801;49.414;19.474;2023-09-12T05:33:45;93848.22;;;17.21;75.76
75219;BME280;63801;49.414;19.474;2023-09-12T05:35:45;93836.91;;;17.26;75.93
75219;BME280;63801;49.414;19.474;2023-09-12T05:37:45;93844.75;;;17.60;76.54
75219;BME280;63801;49.414;19.474;2023-09-12T05:39:46;93845.06;;;18.15;76.16
75219;BME280;63801;49.414;19.474;2023-09-12T05:41:46;93840.94;;;18.83;75.06
75219;BME280;63801;49.414;19.474;2023-09-12T05:43:47;93843.63;;;19.59;73.53
75219;BME280;63801;49.414;19.474;2023-09-12T05:45:47;93841.47;;;20.26;72.35
75219;BME280;63801;49.414;19.474;2023-09-12T05:47:47;93839.19;;;20.88;71.47
75219;BME280;63801;49.414;19.474;2023-09-12T05:49:48;93829.28;;;21.28;70.30
75219;BME280;63801;49.414;19.474;2023-09-12T05:51:49;93832.78;;;21.79;69.39
75219;BME280;63801;49.414;19.474;2023-09-12T05:53:49;93846.25;;;22.39;68.93
75219;BME280;63801;49.414;19.474;2023-09-12T05:55:49;93834.09;;;22.83;67.36
75219;BME280;63801;49.414;19.474;2023-09-12T05:57:50;93840.56;;;23.29;66.40
75219;BME280;63801;49.414;19.474;2023-09-12T05:59:53;93835.81;;;23.65;66.01
75219;BME280;63801;49.414;19.474;2023-09-12T06:01:53;93837.88;;;24.10;65.13
75219;BME280;63801;49.414;19.474;2023-09-12T06:03:53;93836.78;;;24.52;64.30
75219;BME280;63801;49.414;19.474;2023-09-12T06:05:54;93839.63;;;24.94;62.73
75219;BME280;63801;49.414;19.474;2023-09-12T06:07:54;93835.81;;;25.29;62.17
75219;BME280;63801;49.414;19.474;2023-09-12T06:09:54;93838.19;;;25.69;60.67
75219;BME280;63801;49.414;19.474;2023-09-12T06:11:55;93841.69;;;26.07;60.66
75219;BME280;63801;49.414;19.474;2023-09-12T06:13:55;93838.41;;;26.47;59.68
75219;BME280;63801;49.414;19.474;2023-09-12T06:15:55;93844.13;;;26.87;58.28
75219;BME280;63801;49.414;19.474;2023-09-12T06:17:56;93833.31;;;27.23;57.11
75219;BME280;63801;49.414;19.474;2023-09-12T06:19:56;93833.03;;;27.52;56.61
75219;BME280;63801;49.414;19.474;2023-09-12T06:21:56;93844.13;;;27.92;54.98
75219;BME280;63801;49.414;19.474;2023-09-12T06:26:12;93833.63;;;28.27;53.78
75219;BME280;63801;49.414;19.474;2023-09-12T06:28:24;93842.59;;;28.58;52.49
75219;BME280;63801;49.414;19.474;2023-09-12T06:30:25;93843.56;;;28.73;51.97
75219;BME280;63801;49.414;19.474;2023-09-12T06:32:25;93840.94;;;28.88;51.18
75219;BME280;63801;49.414;19.474;2023-09-12T06:34:25;93844.94;;;28.96;50.39
75219;BME280;63801;49.414;19.474;2023-09-12T06:36:28;93822.72;;;29.05;50.01
75219;BME280;63801;49.414;19.474;2023-09-12T06:38:29;93846.91;;;29.41;49.14
75219;BME280;63801;49.414;19.474;2023-09-12T06:40:29;93844.22;;;29.65;48.97
75219;BME280;63801;49.414;19.474;2023-09-12T06:42:30;93830.72;;;29.81;48.19
75219;BME280;63801;49.414;19.474;2023-09-12T06:44:30;93849.75;;;30.16;47.43
75219;BME280;63801;49.414;19.474;2023-09-12T06:46:32;93841.41;;;30.40;46.89
75219;BME280;63801;49.414;19.474;2023-09-12T06:48:36;93846.75;;;30.76;46.02
75219;BME280;63801;49.414;19.474;2023-09-12T06:50:36;93847.94;;;30.99;45.89
75219;BME280;63801;49.414;19.474;2023-09-12T06:52:38;93844.94;;;31.26;45.29
75219;BME280;63801;49.414;19.474;2023-09-12T06:54:38;93851.50;;;31.52;44.68
75219;BME280;63801;49.414;19.474;2023-09-12T06:56:39;93852.09;;;31.86;44.05
75219;BME280;63801;49.414;19.474;2023-09-12T06:58:41;93842.22;;;32.05;43.47
75219;BME280;63801;49.414;19.474;2023-09-12T07:00:42;93832.81;;;32.02;42.94
75219;BME280;63801;49.414;19.474;2023-09-12T07:02:42;93844.38;;;32.10;43.38
75219;BME280;63801;49.414;19.474;2023-09-12T07:04:43;93837.63;;;32.17;43.33
75219;BME280;63801;49.414;19.474;2023-09-12T07:06:43;93842.47;;;32.36;42.41
75219;BME280;63801;49.414;19.474;2023-09-12T07:08:43;93834.59;;;32.55;41.90
75219;BME280;63801;49.414;19.474;2023-09-12T07:10:44;93839.09;;;32.87;41.57
75219;BME280;63801;49.414;19.474;2023-09-12T07:12:45;93844.44;;;33.11;40.71
75219;BME280;63801;49.414;19.474;2023-09-12T07:14:46;93832.72;;;33.27;40.99
75219;BME280;63801;49.414;19.474;2023-09-12T07:16:46;93837.31;;;33.56;40.11
75219;BME280;63801;49.414;19.474;2023-09-12T07:18:48;93833.53;;;33.85;39.77
75219;BME280;63801;49.414;19.474;2023-09-12T07:20:58;93835.38;;;33.99;39.07
75219;BME280;63801;49.414;19.474;2023-09-12T07:22:59;93830.41;;;34.14;39.20
75219;BME280;63801;49.414;19.474;2023-09-12T07:25:00;93826.38;;;34.15;38.74
75219;BME280;63801;49.414;19.474;2023-09-12T07:27:00;93839.72;;;34.32;37.86
75219;BME280;63801;49.414;19.474;2023-09-12T07:29:01;93838.78;;;34.46;37.87
75219;BME280;63801;49.414;19.474;2023-09-12T07:31:02;93836.34;;;34.64;37.68
75219;BME280;63801;49.414;19.474;2023-09-12T07:33:03;93827.53;;;34.77;37.23
75219;BME280;63801;49.414;19.474;2023-09-12T07:35:07;93839.31;;;34.98;37.06
75219;BME280;63801;49.414;19.474;2023-09-12T07:37:07;93840.84;;;34.99;36.72
75219;BME280;63801;49.414;19.474;2023-09-12T07:39:07;93838.28;;;34.90;36.95
75219;BME280;63801;49.414;19.474;2023-09-12T07:41:08;93836.47;;;34.92;36.75
75219;BME280;63801;49.414;19.474;2023-09-12T07:43:09;93842.41;;;35.11;36.87
75219;BME280;63801;49.414;19.474;2023-09-12T07:45:10;93843.78;;;35.38;36.31
75219;BME280;63801;49.414;19.474;2023-09-12T07:47:10;93840.00;;;35.57;36.17
75219;BME280;63801;49.414;19.474;2023-09-12T07:49:10;93843.88;;;35.77;35.68
75219;BME280;63801;49.414;19.474;2023-09-12T07:51:14;93825.00;;;35.88;35.08
75219;BME280;63801;49.414;19.474;2023-09-12T07:53:15;93830.59;;;35.99;34.84
75219;BME280;63801;49.414;19.474;2023-09-12T07:55:15;93824.72;;;36.03;35.14
75219;BME280;63801;49.414;19.474;2023-09-12T07:57:15;93824.50;;;36.07;34.89
75219;BME280;63801;49.414;19.474;2023-09-12T07:59:16;93830.88;;;36.13;34.71
75219;BME280;63801;49.414;19.474;2023-09-12T08:01:16;93831.13;;;36.26;35.23
75219;BME280;63801;49.414;19.474;2023-09-12T08:03:17;93838.28;;;36.38;34.64
75219;BME280;63801;49.414;19.474;2023-09-12T08:05:18;93832.88;;;36.40;34.92
75219;BME280;63801;49.414;19.474;2023-09-12T08:07:19;93828.03;;;36.46;34.87
75219;BME280;63801;49.414;19.474;2023-09-12T08:09:20;93824.44;;;36.51;34.71
75219;BME280;63801;49.414;19.474;2023-09-12T08:11:20;93832.88;;;36.45;34.93
75219;BME280;63801;49.414;19.474;2023-09-12T08:13:21;93829.03;;;36.43;34.61
75219;BME280;63801;49.414;19.474;2023-09-12T08:15:21;93829.03;;;36.43;34.61
75219;BME280;63801;49.414;19.474;2023-09-12T08:17:22;93829.06;;;36.60;34.44
75219;BME280;63801;49.414;19.474;2023-09-12T08:19:23;93819.53;;;36.74;34.27
75219;BME280;63801;49.414;19.474;2023-09-12T08:21:23;93825.91;;;36.80;33.95
75219;BME280;63801;49.414;19.474;2023-09-12T08:23:23;93821.56;;;36.79;34.32
75219;BME280;63801;49.414;19.474;2023-09-12T08:25:24;93820.31;;;36.74;34.38
75219;BME280;63801;49.414;19.474;2023-09-12T08:27:24;93815.16;;;36.78;34.57
75219;BME280;63801;49.414;19.474;2023-09-12T08:29:25;93818.38;;;37.05;34.70
75219;BME280;63801;49.414;19.474;2023-09-12T08:31:25;93811.22;;;37.15;34.18
75219;BME280;63801;49.414;19.474;2023-09-12T08:33:27;93822.63;;;37.28;33.96
75219;BME280;63801;49.414;19.474;2023-09-12T08:35:27;93805.47;;;37.31;33.20
75219;BME280;63801;49.414;19.474;2023-09-12T08:37:28;93813.91;;;37.37;33.21
75219;BME280;63801;49.414;19.474;2023-09-12T08:39:40;93818.28;;;37.27;32.75
75219;BME280;63801;49.414;19.474;2023-09-12T08:41:43;93808.13;;;37.18;33.16
75219;BME280;63801;49.414;19.474;2023-09-12T08:43:47;93806.94;;;36.91;33.04
75219;BME280;63801;49.414;19.474;2023-09-12T08:45:48;93817.53;;;36.52;32.77
75219;BME280;63801;49.414;19.474;2023-09-12T08:47:52;93814.25;;;36.37;33.44
75219;BME280;63801;49.414;19.474;2023-09-12T08:49:54;93816.31;;;36.31;33.51
75219;BME280;63801;49.414;19.474;2023-09-12T08:51:54;93815.03;;;36.26;33.33
75219;BME280;63801;49.414;19.474;2023-09-12T08:53:55;93820.41;;;36.19;33.80
75219;BME280;63801;49.414;19.474;2023-09-12T08:55:55;93812.00;;;36.02;33.90
75219;BME280;63801;49.414;19.474;2023-09-12T08:57:57;93812.50;;;35.78;34.08
75219;BME280;63801;49.414;19.474;2023-09-12T09:00:00;93823.19;;;35.57;34.63
75219;BME280;63801;49.414;19.474;2023-09-12T09:02:07;93819.31;;;35.33;34.51
75219;BME280;63801;49.414;19.474;2023-09-12T09:04:08;93820.75;;;35.00;34.71
75219;BME280;63801;49.414;19.474;2023-09-12T09:06:10;93819.56;;;34.70;35.04
75219;BME280;63801;49.414;19.474;2023-09-12T09:08:12;93801.88;;;34.42;35.30
75219;BME280;63801;49.414;19.474;2023-09-12T09:10:16;93810.38;;;34.21;35.12
75219;BME280;63801;49.414;19.474;2023-09-12T09:12:17;93809.47;;;34.04;35.50
75219;BME280;63801;49.414;19.474;2023-09-12T09:14:18;93814.72;;;33.91;35.85
75219;BME280;63801;49.414;19.474;2023-09-12T09:16:19;93813.13;;;33.53;36.13
75219;BME280;63801;49.414;19.474;2023-09-12T09:18:21;93806.31;;;33.08;36.46
75219;BME280;63801;49.414;19.474;2023-09-12T09:20:24;93806.47;;;32.59;37.04
75219;BME280;63801;49.414;19.474;2023-09-12T09:22:25;93809.72;;;32.17;37.87
75219;BME280;63801;49.414;19.474;2023-09-12T09:24:25;93804.03;;;31.76;38.43
75219;BME280;63801;49.414;19.474;2023-09-12T09:26:50;93811.31;;;31.44;38.73
75219;BME280;63801;49.414;19.474;2023-09-12T09:29:06;93807.13;;;30.96;39.26
75219;BME280;63801;49.414;19.474;2023-09-12T09:31:13;93814.09;;;30.62;39.56
75219;BME280;63801;49.414;19.474;2023-09-12T09:33:14;93821.56;;;30.23;40.17
75219;BME280;63801;49.414;19.474;2023-09-12T09:35:14;93791.50;;;29.79;40.27
75219;BME280;63801;49.414;19.474;2023-09-12T09:37:15;93810.88;;;29.65;40.59
75219;BME280;63801;49.414;19.474;2023-09-12T09:39:17;93805.69;;;29.39;41.33
75219;BME280;63801;49.414;19.474;2023-09-12T09:41:20;93799.06;;;29.28;41.97
75219;BME280;63801;49.414;19.474;2023-09-12T09:43:23;93805.13;;;29.08;41.31
75219;BME280;63801;49.414;19.474;2023-09-12T09:45:25;93788.66;;;28.77;41.83
75219;BME280;63801;49.414;19.474;2023-09-12T09:47:25;93801.16;;;28.54;41.89
75219;BME280;63801;49.414;19.474;2023-09-12T09:49:26;93798.03;;;28.43;42.19
75219;BME280;63801;49.414;19.474;2023-09-12T09:51:26;93798.34;;;28.36;42.65
75219;BME280;63801;49.414;19.474;2023-09-12T09:53:28;93799.75;;;28.32;42.24
75219;BME280;63801;49.414;19.474;2023-09-12T09:55:28;93786.47;;;28.27;42.21
75219;BME280;63801;49.414;19.474;2023-09-12T09:57:28;93797.59;;;28.36;42.35
75219;BME280;63801;49.414;19.474;2023-09-12T09:59:29;93791.88;;;28.39;42.12
75219;BME280;63801;49.414;19.474;2023-09-12T10:01:31;93792.94;;;28.42;42.09
75219;BME280;63801;49.414;19.474;2023-09-12T10:03:36;93781.25;;;28.47;42.66
75219;BME280;63801;49.414;19.474;2023-09-12T10:05:37;93784.63;;;28.51;42.76
75219;BME280;63801;49.414;19.474;2023-09-12T10:07:39;93779.25;;;28.47;42.71
75219;BME280;63801;49.414;19.474;2023-09-12T10:09:40;93779.84;;;28.42;42.42
75219;BME280;63801;49.414;19.474;2023-09-12T10:11:43;93792.81;;;28.36;42.67
75219;BME280;63801;49.414;19.474;2023-09-12T10:13:49;93786.50;;;28.36;42.54
75219;BME280;63801;49.414;19.474;2023-09-12T10:15:50;93787.09;;;28.31;42.53
75219;BME280;63801;49.414;19.474;2023-09-12T10:17:59;93788.94;;;28.34;42.21
75219;BME280;63801;49.414;19.474;2023-09-12T10:20:03;93782.78;;;28.30;42.82
75219;BME280;63801;49.414;19.474;2023-09-12T10:22:46;93786.78;;;28.38;43.03
75219;BME280;63801;49.414;19.474;2023-09-12T10:24:38;93783.72;;;28.45;42.80
75219;BME280;63801;49.414;19.474;2023-09-12T10:26:39;93782.47;;;28.55;42.44
75219;BME280;63801;49.414;19.474;2023-09-12T10:28:43;93782.78;;;28.57;42.91
75219;BME280;63801;49.414;19.474;2023-09-12T10:30:44;93771.38;;;28.55;43.12
75219;BME280;63801;49.414;19.474;2023-09-12T10:32:45;93777.88;;;28.70;42.34
75219;BME280;63801;49.414;19.474;2023-09-12T10:34:48;93763.97;;;28.61;42.32
75219;BME280;63801;49.414;19.474;2023-09-12T10:36:49;93769.22;;;28.59;42.13
75219;BME280;63801;49.414;19.474;2023-09-12T10:38:50;93769.53;;;28.52;42.35
75219;BME280;63801;49.414;19.474;2023-09-12T10:40:52;93766.31;;;28.53;42.76
75219;BME280;63801;49.414;19.474;2023-09-12T10:42:55;93771.38;;;28.55;42.75